Time;durP1;ratioP1;P1;durP2;ratioP2;P2;SDS_P1;SDS_P2;PMS_P1;PMS_P2;Temp;Humidity;BMP_temperature;BMP_pressure;BME280_temperature;BME280_humidity;BME280_pressure;Samples;Min_cycle;Max_cycle;Signal;HPM_P1;HPM_P2
2021/12/21 00:01:31;;;;;;;;;;;;;;;9.60;47.32;102902.59;5021812;28;20436;-85
2021/12/21 00:03:56;;;;;;;;;;;;;;;9.69;47.27;102901.63;5039488;28;19917;-82
2021/12/21 00:06:22;;;;;;;;;;;;;;;9.69;47.28;102907.03;5037392;28;19929;-84
2021/12/21 00:08:47;;;;;;;;;;;;;;;9.70;47.17;102903.41;5020855;28;19933;-84
2021/12/21 00:11:12;;;;;;;;;;;;;;;9.66;47.29;102907.97;5020324;28;19923;-84
2021/12/21 00:13:53;;;;;;;;;;;;;;;9.50;47.36;102899.13;5020765;28;20001;-84
2021/12/21 00:17:43;;;;;;;;;;;;;;;9.59;47.49;102914.34;5021119;28;20003;-85
2021/12/21 00:21:51;;;;;;;;;;;;;;;9.70;46.70;102914.22;5039260;28;20019;-85
2021/12/21 00:24:21;;;;;;;;;;;;;;;9.76;46.52;102914.16;5021609;28;19917;-85
2021/12/21 00:26:46;;;;;;;;;;;;;;;9.34;47.21;102913.69;5021652;28;19963;-85
2021/12/21 00:29:12;;;;;;;;;;;;;;;9.29;47.61;102910.13;5020993;28;19917;-83
2021/12/21 00:31:37;;;;;;;;;;;;;;;9.02;48.31;102901.34;5020507;28;19917;-85
2021/12/21 00:34:05;;;;;;;;;;;;;;;9.26;47.26;102902.06;5038907;28;19987;-84
2021/12/21 00:36:30;;;;;;;;;;;;;;;9.20;47.50;102892.22;5038824;28;19948;-83
2021/12/21 00:38:57;;;;;;;;;;;;;;;9.31;46.64;102893.00;5037977;28;20359;-84
2021/12/21 00:41:24;;;;;;;;;;;;;;;9.19;47.52;102887.72;5022416;28;19963;-86
2021/12/21 00:43:50;;;;;;;;;;;;;;;9.25;47.11;102884.94;5022468;28;19913;-84
2021/12/21 00:46:15;;;;;;;;;;;;;;;9.22;47.38;102885.91;5022508;28;19971;-84
2021/12/21 00:48:48;;;;;;;;;;;;;;;9.10;47.99;102885.09;5021498;28;19917;-83
2021/12/21 00:51:14;;;;;;;;;;;;;;;8.96;48.12;102872.59;5020977;28;19960;-84
2021/12/21 00:53:40;;;;;;;;;;;;;;;9.17;48.10;102882.31;5022383;28;19932;-84
2021/12/21 00:56:05;;;;;;;;;;;;;;;9.10;47.96;102880.56;5020531;28;19913;-84
2021/12/21 00:58:31;;;;;;;;;;;;;;;8.87;48.15;102886.19;5038915;28;19917;-85
2021/12/21 01:00:57;;;;;;;;;;;;;;;9.14;47.93;102884.16;5021482;28;19936;-84
2021/12/21 01:03:22;;;;;;;;;;;;;;;9.31;46.93;102875.91;5021395;28;19953;-84
2021/12/21 01:05:57;;;;;;;;;;;;;;;9.14;47.55;102882.34;5021287;28;19924;-83
2021/12/21 01:08:27;;;;;;;;;;;;;;;8.87;48.03;102880.78;5021576;28;19918;-83
2021/12/21 01:11:06;;;;;;;;;;;;;;;8.75;48.38;102870.97;5021070;28;20319;-84
2021/12/21 01:16:26;;;;;;;;;;;;;;;8.48;49.00;102872.06;5042495;28;19946;-83
2021/12/21 01:19:05;;;;;;;;;;;;;;;8.48;48.98;102867.56;5025230;28;19936;-82
2021/12/21 01:21:37;;;;;;;;;;;;;;;8.40;49.40;102860.41;5027333;28;19928;-82
2021/12/21 01:24:23;;;;;;;;;;;;;;;8.64;48.27;102865.66;5043970;28;19924;-85
2021/12/21 01:32:04;;;;;;;;;;;;;;;8.62;48.70;102867.47;5042404;28;19944;-83
2021/12/21 01:37:05;;;;;;;;;;;;;;;8.67;48.17;102864.75;5043192;28;19921;-86
2021/12/21 01:50:27;;;;;;;;;;;;;;;8.71;47.93;102861.13;5044153;28;20417;-84
2021/12/21 01:52:52;;;;;;;;;;;;;;;8.88;47.37;102852.88;5042960;28;19917;-83
2021/12/21 01:55:17;;;;;;;;;;;;;;;8.99;47.08;102850.09;5024016;28;19917;-84
2021/12/21 01:57:43;;;;;;;;;;;;;;;8.89;46.83;102853.78;5042539;28;19921;-85
2021/12/21 02:00:08;;;;;;;;;;;;;;;8.77;47.02;102849.34;5023543;28;19924;-83
2021/12/21 02:02:34;;;;;;;;;;;;;;;8.60;47.14;102850.38;5022641;28;19917;-84
2021/12/21 02:04:59;;;;;;;;;;;;;;;8.71;46.97;102847.63;5041758;28;20287;-83
2021/12/21 02:07:24;;;;;;;;;;;;;;;8.68;47.15;102850.31;5042420;28;19940;-82
2021/12/21 02:09:50;;;;;;;;;;;;;;;8.54;47.47;102849.53;5041697;28;20353;-83
2021/12/21 02:12:16;;;;;;;;;;;;;;;8.59;47.20;102845.00;5024298;28;19921;-82
2021/12/21 02:14:42;;;;;;;;;;;;;;;8.52;47.40;102847.75;5023871;28;20256;-83
2021/12/21 02:17:18;;;;;;;;;;;;;;;8.51;47.96;102851.38;5024406;28;19929;-83
2021/12/21 02:19:57;;;;;;;;;;;;;;;8.51;47.84;102840.56;5042024;28;19917;-82
2021/12/21 02:22:25;;;;;;;;;;;;;;;8.43;47.69;102842.38;5041873;28;19924;-84
2021/12/21 02:25:21;;;;;;;;;;;;;;;8.38;47.96;102841.53;5022264;28;19951;-84
2021/12/21 02:27:56;;;;;;;;;;;;;;;8.38;48.27;102830.72;5041296;28;20287;-83
2021/12/21 02:30:23;;;;;;;;;;;;;;;8.31;48.28;102842.47;5042146;28;20003;-84
2021/12/21 02:32:48;;;;;;;;;;;;;;;8.45;48.13;102837.88;5042297;28;20003;-81
2021/12/21 02:35:14;;;;;;;;;;;;;;;8.24;48.29;102838.88;5023163;28;20367;-83
2021/12/21 02:37:39;;;;;;;;;;;;;;;8.03;48.54;102841.69;5024002;28;19958;-82
2021/12/21 02:40:05;;;;;;;;;;;;;;;8.26;48.25;102839.78;5022975;28;19925;-82
2021/12/21 02:42:30;;;;;;;;;;;;;;;8.32;47.84;102833.47;5022996;28;19974;-83
2021/12/21 02:44:56;;;;;;;;;;;;;;;8.09;48.70;102844.38;5023719;28;19914;-84
2021/12/21 02:47:21;;;;;;;;;;;;;;;8.35;47.71;102838.84;5022997;28;20333;-83
2021/12/21 02:49:46;;;;;;;;;;;;;;;8.03;48.25;102842.63;5040709;28;19953;-84
2021/12/21 02:52:12;;;;;;;;;;;;;;;8.34;47.20;102843.31;5039933;28;20428;-83
2021/12/21 02:54:37;;;;;;;;;;;;;;;8.23;48.17;102850.59;5023280;28;20003;-83
2021/12/21 02:57:02;;;;;;;;;;;;;;;8.48;47.07;102839.69;5040250;28;19914;-84
2021/12/21 02:59:27;;;;;;;;;;;;;;;8.29;47.95;102841.59;5041157;28;19917;-85
2021/12/21 03:01:53;;;;;;;;;;;;;;;8.04;48.17;102840.81;5040741;28;20058;-84
2021/12/21 03:04:18;;;;;;;;;;;;;;;7.98;48.24;102847.13;5023181;28;19924;-84
2021/12/21 03:07:21;;;;;;;;;;;;;;;8.11;48.14;102843.47;5022488;28;19997;-83
2021/12/21 03:09:43;;;;;;;;;;;;;;;8.28;47.41;102837.09;5041591;28;19925;-83
2021/12/21 03:14:36;;;;;;;;;;;;;;;7.92;48.43;102844.44;5041481;28;19939;-83
2021/12/21 03:17:01;;;;;;;;;;;;;;;7.71;49.19;102846.31;5022584;28;20359;-84
2021/12/21 03:19:26;;;;;;;;;;;;;;;7.61;49.31;102855.34;5040503;28;19962;-82
2021/12/21 03:21:53;;;;;;;;;;;;;;;7.57;49.26;102846.38;5022912;28;19917;-83
2021/12/21 03:24:18;;;;;;;;;;;;;;;7.74;49.65;102840.91;5023291;28;19991;-81
2021/12/21 03:26:43;;;;;;;;;;;;;;;8.03;47.76;102839.00;5022562;28;19917;-85
2021/12/21 03:29:09;;;;;;;;;;;;;;;7.86;48.50;102839.09;5022663;28;19944;-84
2021/12/21 03:31:36;;;;;;;;;;;;;;;7.91;47.83;102839.94;5022554;28;20145;-83
2021/12/21 03:34:01;;;;;;;;;;;;;;;7.65;48.61;102835.56;5040572;28;20298;-82
2021/12/21 03:36:26;;;;;;;;;;;;;;;7.41;49.35;102833.84;5039889;28;19917;-82
2021/12/21 03:39:01;;;;;;;;;;;;;;;7.36;49.65;102835.66;5023358;28;19983;-82
2021/12/21 03:41:27;;;;;;;;;;;;;;;7.60;48.65;102834.69;5023898;28;19929;-85
2021/12/21 03:43:52;;;;;;;;;;;;;;;7.54;48.79;102835.59;5023805;28;19913;-83
2021/12/21 03:46:18;;;;;;;;;;;;;;;7.79;47.98;102831.03;5042460;28;20386;-85
2021/12/21 03:48:45;;;;;;;;;;;;;;;7.72;47.80;102831.97;5024446;28;20241;-85
2021/12/21 03:51:15;;;;;;;;;;;;;;;7.89;47.86;102831.00;5021517;28;19975;-85
2021/12/21 03:53:40;;;;;;;;;;;;;;;7.78;48.20;102828.34;5020319;28;20267;-82
2021/12/21 03:58:31;;;;;;;;;;;;;;;7.66;48.08;102828.41;5037435;28;20374;-83
2021/12/21 04:00:57;;;;;;;;;;;;;;;7.76;47.61;102831.06;5020170;28;19924;-84
2021/12/21 04:03:22;;;;;;;;;;;;;;;7.77;47.62;102811.25;5020491;28;19925;-83
2021/12/21 04:05:47;;;;;;;;;;;;;;;7.94;47.23;102818.38;5020215;28;19901;-84
2021/12/21 04:08:12;;;;;;;;;;;;;;;7.73;48.03;102809.50;5019799;28;19939;-83
2021/12/21 04:10:37;;;;;;;;;;;;;;;7.54;48.20;102819.44;5019331;28;19921;-83
2021/12/21 04:13:03;;;;;;;;;;;;;;;7.56;48.17;102819.44;5018957;28;19971;-85
2021/12/21 04:15:31;;;;;;;;;;;;;;;7.47;48.79;102817.66;5037683;28;19930;-83
2021/12/21 04:17:57;;;;;;;;;;;;;;;7.49;48.66;102807.81;5036911;28;20000;-82
2021/12/21 04:20:22;;;;;;;;;;;;;;;7.32;48.88;102809.63;5019842;28;20381;-84
2021/12/21 04:22:49;;;;;;;;;;;;;;;6.94;49.59;102805.22;5037462;28;19943;-85
2021/12/21 04:25:14;;;;;;;;;;;;;;;6.99;50.64;102811.47;5038710;28;19963;-85
2021/12/21 04:27:39;;;;;;;;;;;;;;;7.19;49.37;102800.69;5019229;28;20020;-82
2021/12/21 04:30:05;;;;;;;;;;;;;;;7.18;49.88;102796.22;5018740;28;19924;-84
2021/12/21 04:32:30;;;;;;;;;;;;;;;7.15;49.69;102802.50;5036377;28;19921;-83
2021/12/21 04:34:55;;;;;;;;;;;;;;;7.52;48.44;102794.31;5020231;28;19921;-84
2021/12/21 04:37:22;;;;;;;;;;;;;;;6.98;49.89;102804.31;5019966;28;19921;-83
2021/12/21 04:40:03;;;;;;;;;;;;;;;7.31;49.46;102806.06;5037166;28;19921;-83
2021/12/21 04:42:29;;;;;;;;;;;;;;;6.81;50.88;102807.00;5019252;28;19925;-82
2021/12/21 04:44:54;;;;;;;;;;;;;;;7.32;48.56;102807.81;5035705;28;19923;-81
2021/12/21 04:47:19;;;;;;;;;;;;;;;7.35;49.12;102805.16;5018883;28;19943;-84
2021/12/21 04:49:44;;;;;;;;;;;;;;;7.21;49.82;102810.53;5039765;28;19917;-83
2021/12/21 04:52:10;;;;;;;;;;;;;;;7.11;49.80;102806.09;5022765;28;19917;-83
2021/12/21 04:54:35;;;;;;;;;;;;;;;6.67;50.74;102801.63;5022237;28;19921;-84
2021/12/21 04:57:00;;;;;;;;;;;;;;;7.18;49.75;102799.78;5039658;28;19921;-83
2021/12/21 04:59:26;;;;;;;;;;;;;;;7.19;48.96;102804.28;5021222;28;19956;-83
2021/12/21 05:01:52;;;;;;;;;;;;;;;6.90;49.53;102807.03;5020864;28;19917;-83
2021/12/21 05:04:17;;;;;;;;;;;;;;;7.17;49.71;102799.78;5021949;28;20286;-84
2021/12/21 05:06:43;;;;;;;;;;;;;;;6.72;50.92;102800.75;5022073;28;19917;-81
2021/12/21 05:09:14;;;;;;;;;;;;;;;6.78;50.62;102810.63;5022164;28;20306;-83
2021/12/21 05:11:43;;;;;;;;;;;;;;;7.11;49.12;102800.72;5040686;28;20294;-84
2021/12/21 05:14:09;;;;;;;;;;;;;;;6.88;49.98;102806.09;5022775;28;19921;-83
2021/12/21 05:16:34;;;;;;;;;;;;;;;7.21;48.85;102798.91;5022375;28;19921;-82
2021/12/21 05:18:59;;;;;;;;;;;;;;;7.14;49.29;102803.41;5021872;28;20314;-81
2021/12/21 05:21:25;;;;;;;;;;;;;;;6.60;50.69;102791.75;5022444;28;20013;-83
2021/12/21 05:23:50;;;;;;;;;;;;;;;7.06;49.17;102795.31;5022814;28;19923;-84
2021/12/21 05:26:15;;;;;;;;;;;;;;;7.03;49.61;102791.75;5022770;28;19921;-82
2021/12/21 05:28:41;;;;;;;;;;;;;;;6.77;50.22;102786.41;5022738;28;19979;-83
2021/12/21 05:31:06;;;;;;;;;;;;;;;6.57;51.06;102790.00;5022155;28;19988;-84
2021/12/21 05:33:31;;;;;;;;;;;;;;;6.74;51.13;102798.94;5022011;28;20012;-82
2021/12/21 05:35:56;;;;;;;;;;;;;;;6.57;51.09;102800.75;5020220;28;20276;-81
2021/12/21 05:38:30;;;;;;;;;;;;;;;6.37;51.52;102790.88;5039201;28;19918;-83
2021/12/21 05:40:58;;;;;;;;;;;;;;;7.05;49.89;102801.63;5022169;28;19925;-84
2021/12/21 05:43:23;;;;;;;;;;;;;;;7.00;49.49;102795.31;5021762;28;19917;-83
2021/12/21 05:45:48;;;;;;;;;;;;;;;6.97;49.99;102800.72;5022653;28;20274;-83
2021/12/21 05:48:13;;;;;;;;;;;;;;;7.10;48.99;102794.41;5021857;28;19917;-84
2021/12/21 05:50:39;;;;;;;;;;;;;;;7.06;49.68;102795.31;5022123;28;20298;-82
2021/12/21 05:53:04;;;;;;;;;;;;;;;7.10;48.96;102797.13;5039487;28;20370;-84
2021/12/21 05:55:30;;;;;;;;;;;;;;;7.05;49.10;102798.00;5021361;28;19983;-83
2021/12/21 05:57:55;;;;;;;;;;;;;;;7.05;49.30;102798.00;5021355;28;19921;-83
2021/12/21 06:00:22;;;;;;;;;;;;;;;6.94;48.97;102800.72;5020945;28;19964;-82
2021/12/21 06:02:48;;;;;;;;;;;;;;;6.73;49.82;102790.88;5022874;28;19921;-82
2021/12/21 06:05:13;;;;;;;;;;;;;;;6.61;50.19;102794.44;5040236;28;20433;-82
2021/12/21 06:07:38;;;;;;;;;;;;;;;6.35;50.63;102806.06;5021948;28;20004;-84
2021/12/21 06:10:11;;;;;;;;;;;;;;;6.72;49.72;102810.63;5023349;28;20275;-84
2021/12/21 06:26:12;;;;;;;;;;;;;;;6.85;48.74;102793.53;5038957;28;19917;-84
2021/12/21 06:28:38;;;;;;;;;;;;;;;6.64;49.79;102794.44;5020821;28;20005;-82
2021/12/21 06:31:03;;;;;;;;;;;;;;;6.88;48.59;102806.09;5038624;28;19980;-83
2021/12/21 06:33:29;;;;;;;;;;;;;;;6.83;48.98;102802.53;5038010;28;20375;-82
2021/12/21 06:35:54;;;;;;;;;;;;;;;6.72;49.12;102800.75;5021702;28;20291;-82
2021/12/21 06:38:19;;;;;;;;;;;;;;;6.88;49.08;102798.94;5021300;28;20442;-84
2021/12/21 06:40:45;;;;;;;;;;;;;;;6.16;50.33;102797.09;5021152;28;19984;-84
2021/12/21 06:43:14;;;;;;;;;;;;;;;6.37;50.82;102809.69;5020354;28;19921;-83
2021/12/21 06:53:34;;;;;;;;;;;;;;;6.67;49.25;102807.94;5038316;28;19916;-84
2021/12/21 06:55:59;;;;;;;;;;;;;;;6.41;49.56;102809.69;5038623;28;19917;-83
2021/12/21 06:58:24;;;;;;;;;;;;;;;6.43;50.17;102806.13;5020405;28;20315;-81
2021/12/21 07:00:52;;;;;;;;;;;;;;;6.35;50.09;102800.69;5020551;28;19917;-83
2021/12/21 07:03:17;;;;;;;;;;;;;;;6.59;50.11;102793.56;5021276;28;19917;-82
2021/12/21 07:05:43;;;;;;;;;;;;;;;6.84;48.53;102788.16;5038318;28;19923;-82
2021/12/21 07:08:12;;;;;;;;;;;;;;;6.77;49.45;102797.16;5020897;28;19920;-81
2021/12/21 07:10:39;;;;;;;;;;;;;;;6.09;49.90;102803.34;5019720;28;19912;-83
2021/12/21 07:18:33;;;;;;;;;;;;;;;6.74;49.60;102807.00;5037475;28;19924;-80
2021/12/21 07:21:01;;;;;;;;;;;;;;;6.89;48.71;102810.59;5019537;28;19917;-82
2021/12/21 07:23:27;;;;;;;;;;;;;;;6.93;48.46;102809.72;5020335;28;19917;-83
2021/12/21 07:25:53;;;;;;;;;;;;;;;6.96;48.42;102808.78;5019915;28;20347;-81
2021/12/21 07:28:18;;;;;;;;;;;;;;;6.92;47.98;102808.78;5020368;28;19944;-81
2021/12/21 07:30:43;;;;;;;;;;;;;;;6.85;47.37;102817.75;5037736;28;19953;-81
2021/12/21 07:33:08;;;;;;;;;;;;;;;6.91;47.95;102817.78;5038575;28;20347;-83
2021/12/21 07:35:34;;;;;;;;;;;;;;;6.53;48.77;102823.13;5019600;28;19913;-82
2021/12/21 07:38:00;;;;;;;;;;;;;;;6.76;48.20;102811.50;5019992;28;19918;-82
2021/12/21 07:40:25;;;;;;;;;;;;;;;6.73;48.64;102818.69;5020025;28;19921;-82
2021/12/21 07:42:50;;;;;;;;;;;;;;;6.74;48.08;102815.06;5020054;28;19950;-82
2021/12/21 07:45:16;;;;;;;;;;;;;;;6.63;48.46;102805.19;5021919;28;19924;-83
2021/12/21 07:47:41;;;;;;;;;;;;;;;6.60;48.85;102808.81;5042587;28;19921;-83
2021/12/21 07:50:07;;;;;;;;;;;;;;;6.81;48.14;102799.84;5026956;28;19951;-80
2021/12/21 07:52:32;;;;;;;;;;;;;;;6.82;48.40;102800.72;5041585;28;19921;-82
2021/12/21 07:54:57;;;;;;;;;;;;;;;6.72;48.42;102805.22;5020448;28;20002;-83
2021/12/21 07:57:22;;;;;;;;;;;;;;;6.60;48.51;102805.19;5020396;28;20025;-81
2021/12/21 07:59:48;;;;;;;;;;;;;;;6.77;48.34;102807.94;5020137;28;19918;-84
2021/12/21 08:02:13;;;;;;;;;;;;;;;6.92;47.81;102813.28;5019639;28;19920;-82
2021/12/21 08:04:41;;;;;;;;;;;;;;;6.87;47.69;102820.44;5020354;28;19924;-84
2021/12/21 08:07:12;;;;;;;;;;;;;;;6.64;49.03;102826.72;5036835;28;20016;-83
2021/12/21 08:09:41;;;;;;;;;;;;;;;6.32;49.99;102827.56;5037286;28;19917;-83
2021/12/21 08:12:17;;;;;;;;;;;;;;;6.19;49.66;102829.34;5021134;28;19929;-82
2021/12/21 08:14:46;;;;;;;;;;;;;;;6.50;49.80;102831.22;5019857;28;19921;-83
2021/12/21 08:17:12;;;;;;;;;;;;;;;6.63;49.29;102835.72;5019746;28;19917;-82
2021/12/21 08:19:37;;;;;;;;;;;;;;;6.44;49.51;102836.56;5019230;28;20271;-83
2021/12/21 08:22:03;;;;;;;;;;;;;;;6.83;48.77;102830.31;5018301;28;19978;-83
2021/12/21 08:24:29;;;;;;;;;;;;;;;7.08;48.42;102839.28;5037062;28;19924;-82
2021/12/21 08:26:58;;;;;;;;;;;;;;;6.77;48.24;102849.16;5019403;28;19925;-82
2021/12/21 08:29:24;;;;;;;;;;;;;;;6.71;48.58;102855.41;5018829;28;19917;-83
2021/12/21 08:31:49;;;;;;;;;;;;;;;6.55;49.27;102851.84;5018941;28;19940;-85
2021/12/21 08:34:15;;;;;;;;;;;;;;;6.47;49.66;102858.97;5038077;28;19917;-83
2021/12/21 08:36:40;;;;;;;;;;;;;;;6.45;50.06;102858.09;5020545;28;19940;-82
2021/12/21 08:39:07;;;;;;;;;;;;;;;6.64;49.49;102866.19;5018779;28;20426;-83
2021/12/21 08:41:38;;;;;;;;;;;;;;;6.93;50.15;102855.47;5019681;28;19921;-82
2021/12/21 08:44:03;;;;;;;;;;;;;;;6.52;50.79;102861.66;5037030;28;19918;-85
2021/12/21 08:46:29;;;;;;;;;;;;;;;5.85;53.58;102858.75;5036811;28;19924;-84
2021/12/21 08:48:54;;;;;;;;;;;;;;;6.54;51.08;102865.28;5019180;28;20399;-84
2021/12/21 08:51:19;;;;;;;;;;;;;;;7.04;50.57;102856.34;5037364;28;19977;-85
2021/12/21 08:53:44;;;;;;;;;;;;;;;7.24;49.67;102858.13;5019740;28;19924;-83
2021/12/21 08:56:10;;;;;;;;;;;;;;;7.20;50.38;102846.47;5037810;28;19984;-83
2021/12/21 08:58:35;;;;;;;;;;;;;;;7.15;49.58;102841.97;5002338;28;19928;-85
2021/12/21 09:01:00;;;;;;;;;;;;;;;7.20;49.19;102835.69;5020006;28;19917;-85
2021/12/21 09:03:26;;;;;;;;;;;;;;;7.68;48.84;102832.84;5020102;28;19971;-84
2021/12/21 09:05:52;;;;;;;;;;;;;;;8.18;48.47;102835.34;5019372;28;19974;-85
2021/12/21 09:08:17;;;;;;;;;;;;;;;8.03;49.36;102834.53;5013601;28;19986;-84
2021/12/21 09:10:43;;;;;;;;;;;;;;;7.45;49.69;102844.59;5018126;28;20334;-85
2021/12/21 09:13:09;;;;;;;;;;;;;;;7.90;49.43;102838.19;5007859;28;19949;-84
2021/12/21 09:15:34;;;;;;;;;;;;;;;7.83;49.40;102842.69;4989134;28;19968;-84
2021/12/21 09:18:00;;;;;;;;;;;;;;;8.31;49.01;102843.34;4999257;28;19918;-83
2021/12/21 09:20:27;;;;;;;;;;;;;;;8.26;48.82;102837.09;5016272;28;19917;-83
2021/12/21 09:22:52;;;;;;;;;;;;;;;8.67;47.83;102840.47;5003174;28;20023;-82
2021/12/21 09:25:18;;;;;;;;;;;;;;;8.33;48.98;102836.16;5004339;28;19953;-84
2021/12/21 09:27:44;;;;;;;;;;;;;;;8.52;48.26;102828.84;5017772;28;19918;-85
2021/12/21 09:30:11;;;;;;;;;;;;;;;8.46;48.56;102828.91;5018744;28;19928;-83
2021/12/21 09:32:36;;;;;;;;;;;;;;;8.46;48.22;102830.72;4998359;28;19925;-82
2021/12/21 09:35:02;;;;;;;;;;;;;;;8.22;48.64;102829.03;5019466;28;19918;-83
2021/12/21 09:37:27;;;;;;;;;;;;;;;8.71;48.99;102819.72;5001675;28;19913;-83
2021/12/21 09:39:54;;;;;;;;;;;;;;;8.89;47.24;102816.88;5004306;28;19975;-83
2021/12/21 09:42:21;;;;;;;;;;;;;;;9.08;46.79;102822.13;5003841;28;20387;-85
2021/12/21 09:44:47;;;;;;;;;;;;;;;9.22;46.84;102821.06;5003049;28;19917;-84
2021/12/21 09:47:12;;;;;;;;;;;;;;;8.65;47.74;102829.69;5020523;28;19992;-83
2021/12/21 09:49:38;;;;;;;;;;;;;;;8.98;47.10;102822.22;5021675;28;19956;-81
2021/12/21 09:52:04;;;;;;;;;;;;;;;9.78;46.98;102817.72;5019446;28;20016;-84
2021/12/21 09:54:30;;;;;;;;;;;;;;;9.23;46.78;102836.34;5015401;28;19918;-82
2021/12/21 09:56:55;;;;;;;;;;;;;;;9.82;46.24;102818.59;4982922;28;19918;-83
2021/12/21 09:59:20;;;;;;;;;;;;;;;9.89;45.89;102818.50;4982690;28;19921;-83
2021/12/21 10:01:46;;;;;;;;;;;;;;;10.23;46.43;102811.72;4983154;28;20005;-83
2021/12/21 10:04:11;;;;;;;;;;;;;;;9.94;45.90;102829.25;4983432;28;19922;-82
2021/12/21 10:06:48;;;;;;;;;;;;;;;10.36;45.77;102834.13;4982802;28;19922;-84
2021/12/21 10:09:14;;;;;;;;;;;;;;;10.10;46.28;102841.66;5000588;28;20297;-85
2021/12/21 10:11:43;;;;;;;;;;;;;;;10.22;45.94;102831.56;5013875;28;20395;-83
2021/12/21 10:14:09;;;;;;;;;;;;;;;9.84;46.75;102831.16;5012681;28;20352;-83
2021/12/21 10:16:34;;;;;;;;;;;;;;;10.43;45.26;102824.97;5019067;28;19925;-84
2021/12/21 10:19:00;;;;;;;;;;;;;;;10.02;45.81;102835.44;5022137;28;19964;-85
2021/12/21 10:21:25;;;;;;;;;;;;;;;10.35;45.72;102829.63;5022585;28;20067;-83
2021/12/21 10:23:52;;;;;;;;;;;;;;;10.39;44.90;102825.97;5023186;28;19940;-84
2021/12/21 10:26:23;;;;;;;;;;;;;;;10.69;45.10;102824.59;5016546;28;19913;-81
2021/12/21 10:28:49;;;;;;;;;;;;;;;10.90;44.81;102817.91;5007745;28;20086;-84
2021/12/21 10:31:15;;;;;;;;;;;;;;;10.12;45.70;102820.00;5016658;28;19921;-82
2021/12/21 10:33:43;;;;;;;;;;;;;;;10.45;45.48;102815.03;5030527;28;20363;-84
2021/12/21 10:36:11;;;;;;;;;;;;;;;10.39;45.44;102802.50;5015995;28;20415;-83
2021/12/21 10:38:49;;;;;;;;;;;;;;;10.22;45.16;102794.59;5012136;28;20317;-83
2021/12/21 10:41:19;;;;;;;;;;;;;;;11.01;44.62;102784.34;5007215;28;20354;-81
2021/12/21 10:43:57;;;;;;;;;;;;;;;10.98;44.45;102779.88;5005984;28;19913;-83
2021/12/21 10:46:22;;;;;;;;;;;;;;;10.81;44.56;102780.16;5009350;28;20369;-82
2021/12/21 10:48:49;;;;;;;;;;;;;;;11.03;43.70;102787.91;5034060;28;19960;-84
2021/12/21 10:51:16;;;;;;;;;;;;;;;11.39;43.05;102778.16;5011650;28;19921;-83
2021/12/21 10:53:45;;;;;;;;;;;;;;;11.01;43.06;102771.69;5007237;28;19983;-81
2021/12/21 10:56:10;;;;;;;;;;;;;;;11.09;42.44;102776.94;5032638;28;20291;-82
2021/12/21 10:58:40;;;;;;;;;;;;;;;11.88;41.05;102766.28;5009211;28;19924;-85
2021/12/21 11:01:08;;;;;;;;;;;;;;;11.91;40.07;102767.13;5000526;28;20512;-85
2021/12/21 11:03:55;;;;;;;;;;;;;;;11.96;38.93;102767.97;5016443;28;20518;-84
2021/12/21 11:06:23;;;;;;;;;;;;;;;12.09;38.29;102774.00;5006234;28;19929;-85
2021/12/21 11:08:51;;;;;;;;;;;;;;;10.59;38.45;102788.63;5016375;28;19922;-86
2021/12/21 11:11:24;;;;;;;;;;;;;;;11.31;38.45;102774.72;4999666;28;19922;-86
2021/12/21 11:14:03;;;;;;;;;;;;;;;11.68;38.50;102773.97;5017931;28;20402;-83
2021/12/21 11:16:35;;;;;;;;;;;;;;;10.22;39.60;102781.09;5016404;28;19917;-82
2021/12/21 11:19:01;;;;;;;;;;;;;;;10.10;40.26;102778.56;5015297;28;19956;-85
2021/12/21 11:21:28;;;;;;;;;;;;;;;11.11;39.54;102769.69;5012785;28;19968;-85
2021/12/21 11:23:53;;;;;;;;;;;;;;;10.90;39.75;102766.47;5030332;28;19917;-87
2021/12/21 11:26:19;;;;;;;;;;;;;;;11.69;39.01;102763.09;5009586;28;20016;-85
2021/12/21 11:28:44;;;;;;;;;;;;;;;12.05;38.31;102765.06;5009437;28;20374;-84
2021/12/21 11:31:10;;;;;;;;;;;;;;;11.81;37.83;102767.34;5002787;28;19917;-86
2021/12/21 11:33:41;;;;;;;;;;;;;;;11.62;38.12;102763.25;5010129;28;19918;-85
2021/12/21 11:38:54;;;;;;;;;;;;;;;11.29;39.28;102760.31;5037701;28;19932;-85
2021/12/21 11:41:20;;;;;;;;;;;;;;;12.23;36.63;102742.03;5035532;28;20264;-85
2021/12/21 11:44:21;;;;;;;;;;;;;;;11.82;36.53;102751.97;5000405;28;19929;-84
2021/12/21 11:46:51;;;;;;;;;;;;;;;11.21;35.53;102738.78;4958455;29;19966;-85
2021/12/21 11:49:21;;;;;;;;;;;;;;;12.37;34.29;102726.28;5004840;28;20023;-87
2021/12/21 11:51:46;;;;;;;;;;;;;;;13.15;33.51;102729.66;5020925;28;20470;-87
2021/12/21 11:54:19;;;;;;;;;;;;;;;12.44;34.85;102727.03;5020268;28;19984;-84
2021/12/21 11:56:45;;;;;;;;;;;;;;;12.21;34.93;102724.88;5019907;28;19913;-85
2021/12/21 11:59:10;;;;;;;;;;;;;;;12.60;33.90;102738.38;5012310;28;19939;-85
2021/12/21 12:01:35;;;;;;;;;;;;;;;12.48;36.42;102734.16;5010532;28;19921;-85
2021/12/21 12:04:03;;;;;;;;;;;;;;;12.67;35.78;102730.97;5009064;28;19921;-86
2021/12/21 12:06:41;;;;;;;;;;;;;;;12.76;34.17;102730.75;5019007;28;19917;-83
2021/12/21 12:09:06;;;;;;;;;;;;;;;14.06;32.53;102724.28;5019316;28;19948;-84
2021/12/21 12:11:36;;;;;;;;;;;;;;;13.50;33.10;102716.91;5019796;28;20351;-87
2021/12/21 12:14:21;;;;;;;;;;;;;;;13.27;32.12;102724.78;5018850;28;19964;-86
2021/12/21 12:16:50;;;;;;;;;;;;;;;13.54;32.67;102715.88;5018642;28;20386;-89
2021/12/21 12:19:19;;;;;;;;;;;;;;;14.60;31.78;102711.56;5019882;28;19924;-86
2021/12/21 12:22:12;;;;;;;;;;;;;;;14.29;32.55;102705.34;5019526;28;19917;-86
2021/12/21 12:24:41;;;;;;;;;;;;;;;14.11;32.23;102698.66;5016317;28;20003;-86
2021/12/21 12:27:17;;;;;;;;;;;;;;;12.49;33.53;102702.47;5018728;28;19925;-85
2021/12/21 12:30:21;;;;;;;;;;;;;;;12.80;33.79;102705.25;5019100;28;19921;-86
2021/12/21 12:32:47;;;;;;;;;;;;;;;12.13;34.92;102700.66;4956778;28;19970;-82
2021/12/21 12:35:17;;;;;;;;;;;;;;;12.56;34.57;102698.66;4957780;28;19963;-82
2021/12/21 12:38:00;;;;;;;;;;;;;;;12.07;36.15;102700.78;4989074;28;20379;-82
2021/12/21 12:40:29;;;;;;;;;;;;;;;12.85;34.17;102700.59;5019284;28;20437;-86
2021/12/21 12:42:55;;;;;;;;;;;;;;;12.58;34.01;102692.25;5019809;28;19937;-86
2021/12/21 12:45:22;;;;;;;;;;;;;;;12.68;33.32;102695.63;5019833;28;19924;-86
2021/12/21 12:47:49;;;;;;;;;;;;;;;12.72;33.30;102693.72;5020454;28;20332;-85
2021/12/21 12:50:22;;;;;;;;;;;;;;;12.28;34.82;102690.34;5018362;28;19917;-84
2021/12/21 12:53:06;;;;;;;;;;;;;;;11.99;34.82;102689.25;5020414;28;19921;-85
2021/12/21 12:55:37;;;;;;;;;;;;;;;12.21;35.89;102692.31;5018911;28;20537;-84
2021/12/21 12:58:04;;;;;;;;;;;;;;;12.55;35.23;102686.91;5019280;28;19960;-86
2021/12/21 13:00:31;;;;;;;;;;;;;;;13.11;34.93;102690.84;5018639;28;19917;-85
2021/12/21 13:02:58;;;;;;;;;;;;;;;13.03;36.64;102687.44;5036109;28;19917;-84
2021/12/21 13:05:25;;;;;;;;;;;;;;;12.98;36.60;102692.13;5018145;28;19917;-84
2021/12/21 13:07:50;;;;;;;;;;;;;;;13.10;37.08;102692.66;5018614;28;19928;-84
2021/12/21 13:10:15;;;;;;;;;;;;;;;13.46;36.52;102688.94;5041604;28;20279;-85
2021/12/21 13:12:41;;;;;;;;;;;;;;;12.80;37.85;102683.53;5041378;28;19973;-88
2021/12/21 13:15:07;;;;;;;;;;;;;;;12.88;38.00;102686.06;5024530;28;19921;-86
2021/12/21 13:17:32;;;;;;;;;;;;;;;13.01;37.71;102682.03;5024369;28;19924;-88
2021/12/21 13:19:58;;;;;;;;;;;;;;;12.74;38.60;102683.69;5026421;28;20011;-87
2021/12/21 13:22:24;;;;;;;;;;;;;;;12.76;38.92;102685.44;5024076;28;20359;-87
2021/12/21 13:24:51;;;;;;;;;;;;;;;12.76;38.39;102673.72;5024802;28;19944;-88
2021/12/21 13:27:23;;;;;;;;;;;;;;;12.90;37.96;102685.06;5042225;28;19917;-88
2021/12/21 13:29:49;;;;;;;;;;;;;;;12.77;38.38;102672.75;5024853;28;20410;-87
2021/12/21 13:32:17;;;;;;;;;;;;;;;13.05;37.79;102672.00;5023577;28;19967;-89
2021/12/21 13:34:44;;;;;;;;;;;;;;;12.66;38.65;102670.34;5024328;28;19953;-87
2021/12/21 13:37:12;;;;;;;;;;;;;;;13.01;38.75;102671.16;5025874;28;19917;-93
2021/12/21 13:39:39;;;;;;;;;;;;;;;12.67;38.67;102654.94;5024209;28;19943;-85
2021/12/21 13:42:10;;;;;;;;;;;;;;;12.68;38.50;102657.63;5025365;28;19917;-87
2021/12/21 13:44:37;;;;;;;;;;;;;;;11.73;39.54;102663.59;5027246;28;19913;-86